Airfield :
LOGIN :

Register | Disclaimer

   EN    FR    IT 

 










Legend :    VFR   Marginal VFR   IFR   Intensive IFR   Very Intensive IFR
Visi :
Ceiling :
>= 8 km
>= 3000ft
5 to 8 km
1000 to 3000 ft
1500m to 5 km
500 to 1000 ft
800 to 1500m
200 to 500 ft
< 800m
< 200 ft
Symbols :   Thunderstorms  Fog  Heavy snow  Heavy precipitations  Wind > 20 kt
SIGMETs :     Misc.  Thunderstorms  Icing  Turbulence  Mountain Waves  Volcanic Ashes







- Airport Elevation : 117 ft
- IATA code : NWI
- Download approach charts


EGSH - Norwich

CURRENT METAR :
  • 180720Z 29030G42KT 9999 -SHRA SCT012 BKN017 04/02 Q0990 TEMPO BKN012

EXPIRED METARs :
  • 180650Z 29040G60KT 9999 -SHRA SCT013 BKN019 04/01 Q0987 TEMPO BKN013
  • 180620Z 27037G55KT 230V290 9999 SCT026 BKN035 07/03 Q0984 TEMPO BKN014
  • 180550Z 26033G54KT 240V300 9999 SCT038 BKN047 09/03 Q0983 NOSIG
  • 180520Z AUTO 25031G44KT 230V290 9999 BKN039/// BKN047/// 10/04 Q0982
  • 180450Z AUTO 25024G42KT 230V290 9999 FEW036/// SCT043/// 10/05 Q0983

TAF AMD TAF EGSH
Valid from the 18 at 06:00 until the 18 at 15:00 UTC


180515Z 1806/1815 27030G50KT 9999 SCT020
TEMPO 1806/1815 7000 SHRA BKN009
PROB30
TEMPO 1806/1808 28040G60KT
BECMG 1807/1810 28013KT
TEMPO 1810/1815 28016G26KT
PROB30
TEMPO 1812/1815 4000 +SHRA BKN014 BKN020CB
ATIS : +44 1603 420 640
No reported NOTAMs for that airfield.
1 SIGMET reported for the London FIR (EGTT) :
 
Severe turbulence
EGTT SIGMET 04 VALID 180640/181030 EGRR
EGTT LONDON FIR SEV TURB FCST E OF LINE N4955 W00225 - N5500 W00311 SFC/FL060 MOV E 45KT INTSF=



MET'MAP, your aeronautical weather chart ! - Copyright ORBIFLY December 2007 - Disclaimer

ORBIFLY MET'MAP TEAM :

Programming & Development : Alexandra Zaïnal
Concept & Development : Baudouin d'Aumeries
Co-Development & Prog : Marc-Olivier Méhu
Technical & hardware support : Manuel Goepfert

Contact : metmap@orbifly.com




SOURCES & CREDITS :

   NOAA